sensor_id;sensor_type;location;lat;lon;timestamp;pressure;altitude;pressure_sealevel;temperature;humidity
7930;BME280;4010;42.698;23.124;2022-11-28T00:02:08;76976.53;;;-140.64;100.00
7930;BME280;4010;42.698;23.124;2022-11-28T00:04:35;76195.72;;;-140.64;100.00
7930;BME280;4010;42.698;23.124;2022-11-28T00:07:03;76716.25;;;-140.64;100.00
7930;BME280;4010;42.698;23.124;2022-11-28T00:09:29;75415.06;;;-140.64;100.00
7930;BME280;4010;42.698;23.124;2022-11-28T00:11:56;74634.59;;;-140.64;100.00
7930;BME280;4010;42.698;23.124;2022-11-28T00:14:23;74634.59;;;-140.64;100.00
7930;BME280;4010;42.698;23.124;2022-11-28T00:16:49;73854.28;;;-140.64;100.00
7930;BME280;4010;42.698;23.124;2022-11-28T00:19:16;73334.19;;;-140.64;100.00
7930;BME280;4010;42.698;23.124;2022-11-28T00:21:43;73594.22;;;-140.64;100.00
7930;BME280;4010;42.698;23.124;2022-11-28T00:24:11;72814.16;;;-140.64;100.00
7930;BME280;4010;42.698;23.124;2022-11-28T00:26:40;73594.22;;;-140.64;100.00
7930;BME280;4010;42.698;23.124;2022-11-28T00:29:08;72294.22;;;-140.64;100.00
7930;BME280;4010;42.698;23.124;2022-11-28T00:31:37;73074.16;;;-140.64;100.00
7930;BME280;4010;42.698;23.124;2022-11-28T00:34:07;72554.19;;;-140.64;100.00
7930;BME280;4010;42.698;23.124;2022-11-28T00:36:34;73074.16;;;-140.64;100.00
7930;BME280;4010;42.698;23.124;2022-11-28T00:39:00;72034.28;;;-140.64;100.00
7930;BME280;4010;42.698;23.124;2022-11-28T00:41:29;72554.19;;;-140.64;100.00
7930;BME280;4010;42.698;23.124;2022-11-28T00:43:58;70734.88;;;-140.64;100.00
7930;BME280;4010;42.698;23.124;2022-11-28T00:46:25;69176.25;;;-140.64;100.00
7930;BME280;4010;42.698;23.124;2022-11-28T00:48:52;69435.97;;;-140.64;100.00
7930;BME280;4010;42.698;23.124;2022-11-28T00:51:20;69435.97;;;-140.64;100.00
7930;BME280;4010;42.698;23.124;2022-11-28T00:53:49;69176.25;;;-140.64;100.00
7930;BME280;4010;42.698;23.124;2022-11-28T00:56:18;68656.84;;;-140.64;100.00
7930;BME280;4010;42.698;23.124;2022-11-28T00:58:47;68656.84;;;-140.64;100.00
7930;BME280;4010;42.698;23.124;2022-11-28T01:01:15;69435.97;;;-140.64;100.00
7930;BME280;4010;42.698;23.124;2022-11-28T01:03:43;69176.25;;;-140.64;100.00
7930;BME280;4010;42.698;23.124;2022-11-28T01:06:10;68656.84;;;-140.64;100.00
7930;BME280;4010;42.698;23.124;2022-11-28T01:08:37;69435.97;;;-140.64;100.00
7930;BME280;4010;42.698;23.124;2022-11-28T01:11:09;70215.25;;;-140.64;100.00
7930;BME280;4010;42.698;23.124;2022-11-28T01:13:36;69955.47;;;-140.64;100.00
7930;BME280;4010;42.698;23.124;2022-11-28T01:16:05;69176.25;;;-140.64;100.00
7930;BME280;4010;42.698;23.124;2022-11-28T01:18:32;69176.25;;;-140.64;100.00
7930;BME280;4010;42.698;23.124;2022-11-28T01:20:58;69695.72;;;-140.64;100.00
7930;BME280;4010;42.698;23.124;2022-11-28T01:23:25;68916.53;;;-140.64;100.00
7930;BME280;4010;42.698;23.124;2022-11-28T01:25:52;68656.84;;;-140.64;100.00
7930;BME280;4010;42.698;23.124;2022-11-28T01:28:19;68137.56;;;-140.64;100.00
7930;BME280;4010;42.698;23.124;2022-11-28T01:30:45;67877.94;;;-140.64;100.00
7930;BME280;4010;42.698;23.124;2022-11-28T01:33:13;66580.09;;;-140.64;100.00
7930;BME280;4010;42.698;23.124;2022-11-28T01:35:40;66839.63;;;-140.64;100.00
7930;BME280;4010;42.698;23.124;2022-11-28T01:38:07;67358.72;;;-140.64;100.00
7930;BME280;4010;42.698;23.124;2022-11-28T01:40:33;66580.09;;;-140.64;100.00
7930;BME280;4010;42.698;23.124;2022-11-28T01:43:00;66839.63;;;-140.64;100.00
7930;BME280;4010;42.698;23.124;2022-11-28T01:45:33;66839.63;;;-140.64;100.00
7930;BME280;4010;42.698;23.124;2022-11-28T01:48:02;66320.59;;;-140.64;100.00
7930;BME280;4010;42.698;23.124;2022-11-28T01:50:31;65801.63;;;-140.64;100.00
7930;BME280;4010;42.698;23.124;2022-11-28T01:53:03;65282.75;;;-140.64;100.00
7930;BME280;4010;42.698;23.124;2022-11-28T01:55:36;65801.63;;;-140.64;100.00
7930;BME280;4010;42.698;23.124;2022-11-28T01:58:05;65282.75;;;-140.64;100.00
7930;BME280;4010;42.698;23.124;2022-11-28T02:00:32;66061.09;;;-140.64;100.00
7930;BME280;4010;42.698;23.124;2022-11-28T02:03:02;65542.19;;;-140.64;100.00
7930;BME280;4010;42.698;23.124;2022-11-28T02:05:32;66061.09;;;-140.64;100.00
7930;BME280;4010;42.698;23.124;2022-11-28T02:07:59;67877.94;;;-140.64;100.00
7930;BME280;4010;42.698;23.124;2022-11-28T02:10:30;67099.16;;;-140.64;100.00
7930;BME280;4010;42.698;23.124;2022-11-28T02:13:10;67358.72;;;-140.64;100.00
7930;BME280;4010;42.698;23.124;2022-11-28T02:15:50;67099.16;;;-140.64;100.00
7930;BME280;4010;42.698;23.124;2022-11-28T02:18:42;68656.84;;;-140.64;100.00
7930;BME280;4010;42.698;23.124;2022-11-28T02:21:22;68397.19;;;-140.64;100.00
7930;BME280;4010;42.698;23.124;2022-11-28T02:24:10;67877.94;;;-140.64;100.00
7930;BME280;4010;42.698;23.124;2022-11-28T02:26:58;68656.84;;;-140.64;100.00
7930;BME280;4010;42.698;23.124;2022-11-28T02:30:08;68916.53;;;-140.64;100.00
7930;BME280;4010;42.698;23.124;2022-11-28T02:32:54;67877.94;;;-140.64;100.00
7930;BME280;4010;42.698;23.124;2022-11-28T02:35:25;68397.19;;;-140.64;100.00
7930;BME280;4010;42.698;23.124;2022-11-28T02:38:03;68656.84;;;-140.64;100.00
7930;BME280;4010;42.698;23.124;2022-11-28T02:40:36;68137.56;;;-140.64;100.00
7930;BME280;4010;42.698;23.124;2022-11-28T02:43:09;68137.56;;;-140.64;100.00
7930;BME280;4010;42.698;23.124;2022-11-28T02:45:44;69435.97;;;-140.64;100.00
7930;BME280;4010;42.698;23.124;2022-11-28T02:48:18;69695.72;;;-140.64;100.00
7930;BME280;4010;42.698;23.124;2022-11-28T02:50:51;68656.84;;;-140.64;100.00
7930;BME280;4010;42.698;23.124;2022-11-28T02:53:21;69695.72;;;-140.64;100.00
7930;BME280;4010;42.698;23.124;2022-11-28T02:55:50;69176.25;;;-140.64;100.00
7930;BME280;4010;42.698;23.124;2022-11-28T02:58:17;69955.47;;;-140.64;100.00
7930;BME280;4010;42.698;23.124;2022-11-28T03:00:46;70215.25;;;-140.64;100.00
7930;BME280;4010;42.698;23.124;2022-11-28T03:03:28;69955.47;;;-140.64;100.00
7930;BME280;4010;42.698;23.124;2022-11-28T03:06:01;69695.72;;;-140.64;100.00
7930;BME280;4010;42.698;23.124;2022-11-28T03:08:39;70734.88;;;-140.64;100.00
7930;BME280;4010;42.698;23.124;2022-11-28T03:11:15;70734.88;;;-140.64;100.00
7930;BME280;4010;42.698;23.124;2022-11-28T03:13:51;70734.88;;;-140.64;100.00
7930;BME280;4010;42.698;23.124;2022-11-28T03:16:26;70215.25;;;-140.64;100.00
7930;BME280;4010;42.698;23.124;2022-11-28T03:19:00;68397.19;;;-140.64;100.00
7930;BME280;4010;42.698;23.124;2022-11-28T03:21:37;69695.72;;;-140.64;100.00
7930;BME280;4010;42.698;23.124;2022-11-28T03:24:10;70475.06;;;-140.64;100.00
7930;BME280;4010;42.698;23.124;2022-11-28T03:26:45;70475.06;;;-140.64;100.00
7930;BME280;4010;42.698;23.124;2022-11-28T03:29:19;70215.25;;;-140.64;100.00
7930;BME280;4010;42.698;23.124;2022-11-28T03:31:51;70215.25;;;-140.64;100.00
7930;BME280;4010;42.698;23.124;2022-11-28T03:34:22;70215.25;;;-140.64;100.00
7930;BME280;4010;42.698;23.124;2022-11-28T03:36:52;70734.88;;;-140.64;100.00
7930;BME280;4010;42.698;23.124;2022-11-28T03:39:24;69955.47;;;-140.64;100.00
7930;BME280;4010;42.698;23.124;2022-11-28T03:41:57;69955.47;;;-140.64;100.00
7930;BME280;4010;42.698;23.124;2022-11-28T03:44:27;70475.06;;;-140.64;100.00
7930;BME280;4010;42.698;23.124;2022-11-28T03:46:56;70475.06;;;-140.64;100.00
7930;BME280;4010;42.698;23.124;2022-11-28T03:49:29;69695.72;;;-140.64;100.00
7930;BME280;4010;42.698;23.124;2022-11-28T03:51:59;70215.25;;;-140.64;100.00
7930;BME280;4010;42.698;23.124;2022-11-28T03:54:32;70475.06;;;-140.64;100.00
7930;BME280;4010;42.698;23.124;2022-11-28T03:57:06;71254.59;;;-140.64;100.00
7930;BME280;4010;42.698;23.124;2022-11-28T03:59:36;71514.47;;;-140.64;100.00
7930;BME280;4010;42.698;23.124;2022-11-28T04:02:12;71514.47;;;-140.64;100.00
7930;BME280;4010;42.698;23.124;2022-11-28T04:04:49;70994.72;;;-140.64;100.00
7930;BME280;4010;42.698;23.124;2022-11-28T04:07:24;71514.47;;;-140.64;100.00
7930;BME280;4010;42.698;23.124;2022-11-28T04:09:58;72294.22;;;-140.64;100.00
7930;BME280;4010;42.698;23.124;2022-11-28T04:12:32;73854.28;;;-140.64;100.00
7930;BME280;4010;42.698;23.124;2022-11-28T04:15:05;74114.38;;;-140.64;100.00
7930;BME280;4010;42.698;23.124;2022-11-28T04:17:36;75154.88;;;-140.64;100.00
7930;BME280;4010;42.698;23.124;2022-11-28T04:20:08;74634.59;;;-140.64;100.00
7930;BME280;4010;42.698;23.124;2022-11-28T04:22:42;74634.59;;;-140.64;100.00
7930;BME280;4010;42.698;23.124;2022-11-28T04:25:12;73594.22;;;-140.64;100.00
7930;BME280;4010;42.698;23.124;2022-11-28T04:27:44;73594.22;;;-140.64;100.00
7930;BME280;4010;42.698;23.124;2022-11-28T04:30:13;73074.16;;;-140.64;100.00
7930;BME280;4010;42.698;23.124;2022-11-28T04:32:45;73074.16;;;-140.64;100.00
7930;BME280;4010;42.698;23.124;2022-11-28T04:35:19;73074.16;;;-140.64;100.00
7930;BME280;4010;42.698;23.124;2022-11-28T04:37:48;74114.38;;;-140.64;100.00
7930;BME280;4010;42.698;23.124;2022-11-28T04:40:19;73854.28;;;-140.64;100.00
7930;BME280;4010;42.698;23.124;2022-11-28T04:42:51;74374.47;;;-140.64;100.00
7930;BME280;4010;42.698;23.124;2022-11-28T04:45:23;73854.28;;;-140.64;100.00
7930;BME280;4010;42.698;23.124;2022-11-28T04:47:51;74634.59;;;-140.64;100.00
7930;BME280;4010;42.698;23.124;2022-11-28T04:50:21;74374.47;;;-140.64;100.00
7930;BME280;4010;42.698;23.124;2022-11-28T04:52:53;73074.16;;;-140.64;100.00
7930;BME280;4010;42.698;23.124;2022-11-28T04:55:27;72294.22;;;-140.64;100.00
7930;BME280;4010;42.698;23.124;2022-11-28T04:58:02;72034.28;;;-140.64;100.00
7930;BME280;4010;42.698;23.124;2022-11-28T05:00:33;73074.16;;;-140.64;100.00
7930;BME280;4010;42.698;23.124;2022-11-28T05:03:03;72814.16;;;-140.64;100.00
7930;BME280;4010;42.698;23.124;2022-11-28T05:05:41;73074.16;;;-140.64;100.00
7930;BME280;4010;42.698;23.124;2022-11-28T05:08:08;71774.38;;;-140.64;100.00
7930;BME280;4010;42.698;23.124;2022-11-28T05:10:35;72034.28;;;-140.64;100.00
7930;BME280;4010;42.698;23.124;2022-11-28T05:13:02;70994.72;;;-140.64;100.00
7930;BME280;4010;42.698;23.124;2022-11-28T05:15:28;71774.38;;;-140.64;100.00
7930;BME280;4010;42.698;23.124;2022-11-28T05:17:55;71514.47;;;-140.64;100.00
7930;BME280;4010;42.698;23.124;2022-11-28T05:20:22;73334.19;;;-140.64;100.00
7930;BME280;4010;42.698;23.124;2022-11-28T05:22:50;73594.22;;;-140.64;100.00
7930;BME280;4010;42.698;23.124;2022-11-28T05:25:17;72814.16;;;-140.64;100.00
7930;BME280;4010;42.698;23.124;2022-11-28T05:27:43;73854.28;;;-140.64;100.00
7930;BME280;4010;42.698;23.124;2022-11-28T05:30:11;73074.16;;;-140.64;100.00
7930;BME280;4010;42.698;23.124;2022-11-28T05:32:38;73074.16;;;-140.64;100.00
7930;BME280;4010;42.698;23.124;2022-11-28T05:35:05;73854.28;;;-140.64;100.00
7930;BME280;4010;42.698;23.124;2022-11-28T05:37:32;73594.22;;;-140.64;100.00
7930;BME280;4010;42.698;23.124;2022-11-28T05:40:00;73074.16;;;-140.64;100.00
7930;BME280;4010;42.698;23.124;2022-11-28T05:42:31;72034.28;;;-140.64;100.00
7930;BME280;4010;42.698;23.124;2022-11-28T05:44:57;72554.19;;;-140.64;100.00
7930;BME280;4010;42.698;23.124;2022-11-28T05:47:24;71514.47;;;-140.64;100.00
7930;BME280;4010;42.698;23.124;2022-11-28T05:49:51;72814.16;;;-140.64;100.00
7930;BME280;4010;42.698;23.124;2022-11-28T05:52:18;73334.19;;;-140.64;100.00
7930;BME280;4010;42.698;23.124;2022-11-28T05:54:44;72814.16;;;-140.64;100.00
7930;BME280;4010;42.698;23.124;2022-11-28T05:57:12;73074.16;;;-140.64;100.00
7930;BME280;4010;42.698;23.124;2022-11-28T05:59:39;72554.19;;;-140.64;100.00
7930;BME280;4010;42.698;23.124;2022-11-28T06:02:06;72814.16;;;-140.64;100.00
7930;BME280;4010;42.698;23.124;2022-11-28T06:04:32;72034.28;;;-140.64;100.00
7930;BME280;4010;42.698;23.124;2022-11-28T06:06:59;73074.16;;;-140.64;100.00
7930;BME280;4010;42.698;23.124;2022-11-28T06:09:26;73074.16;;;-140.64;100.00
7930;BME280;4010;42.698;23.124;2022-11-28T06:11:53;72034.28;;;-140.64;100.00
7930;BME280;4010;42.698;23.124;2022-11-28T06:14:21;71254.59;;;-140.64;100.00
7930;BME280;4010;42.698;23.124;2022-11-28T06:16:47;72034.28;;;-140.64;100.00
7930;BME280;4010;42.698;23.124;2022-11-28T06:19:14;73594.22;;;-140.64;100.00
7930;BME280;4010;42.698;23.124;2022-11-28T06:21:41;72034.28;;;-140.64;100.00
7930;BME280;4010;42.698;23.124;2022-11-28T06:24:08;72294.22;;;-140.64;100.00
7930;BME280;4010;42.698;23.124;2022-11-28T06:26:35;72554.19;;;-140.64;100.00
7930;BME280;4010;42.698;23.124;2022-11-28T06:29:02;72554.19;;;-140.64;100.00
7930;BME280;4010;42.698;23.124;2022-11-28T06:31:31;70994.72;;;-140.64;100.00
7930;BME280;4010;42.698;23.124;2022-11-28T06:33:58;71254.59;;;-140.64;100.00
7930;BME280;4010;42.698;23.124;2022-11-28T06:36:25;70994.72;;;-140.64;100.00
7930;BME280;4010;42.698;23.124;2022-11-28T06:38:52;72294.22;;;-140.64;100.00
7930;BME280;4010;42.698;23.124;2022-11-28T06:41:20;72034.28;;;-140.64;100.00
7930;BME280;4010;42.698;23.124;2022-11-28T06:43:47;71774.38;;;-140.64;100.00
7930;BME280;4010;42.698;23.124;2022-11-28T06:46:15;72034.28;;;-140.64;100.00
7930;BME280;4010;42.698;23.124;2022-11-28T06:48:44;72554.19;;;-140.64;100.00
7930;BME280;4010;42.698;23.124;2022-11-28T06:51:12;72294.22;;;-140.64;100.00
7930;BME280;4010;42.698;23.124;2022-11-28T06:53:39;72294.22;;;-140.64;100.00
7930;BME280;4010;42.698;23.124;2022-11-28T06:56:08;70994.72;;;-140.64;100.00
7930;BME280;4010;42.698;23.124;2022-11-28T06:58:36;71514.47;;;-140.64;100.00
7930;BME280;4010;42.698;23.124;2022-11-28T07:01:07;70994.72;;;-140.64;100.00
7930;BME280;4010;42.698;23.124;2022-11-28T07:03:34;70475.06;;;-140.64;100.00
7930;BME280;4010;42.698;23.124;2022-11-28T07:06:03;70994.72;;;-140.64;100.00
7930;BME280;4010;42.698;23.124;2022-11-28T07:08:30;70734.88;;;-140.64;100.00
7930;BME280;4010;42.698;23.124;2022-11-28T07:10:57;69435.97;;;-140.64;100.00
7930;BME280;4010;42.698;23.124;2022-11-28T07:13:31;68916.53;;;-140.64;100.00
7930;BME280;4010;42.698;23.124;2022-11-28T07:15:58;70215.25;;;-140.64;100.00
7930;BME280;4010;42.698;23.124;2022-11-28T07:18:25;68916.53;;;-140.64;100.00
7930;BME280;4010;42.698;23.124;2022-11-28T07:20:51;69955.47;;;-140.64;100.00
7930;BME280;4010;42.698;23.124;2022-11-28T07:23:19;71774.38;;;-140.64;100.00
7930;BME280;4010;42.698;23.124;2022-11-28T07:25:46;71514.47;;;-140.64;100.00
7930;BME280;4010;42.698;23.124;2022-11-28T07:28:13;70215.25;;;-140.64;100.00
7930;BME280;4010;42.698;23.124;2022-11-28T07:30:40;71774.38;;;-140.64;100.00
7930;BME280;4010;42.698;23.124;2022-11-28T07:33:06;74114.38;;;-140.64;100.00
7930;BME280;4010;42.698;23.124;2022-11-28T07:35:33;73074.16;;;-140.64;100.00
7930;BME280;4010;42.698;23.124;2022-11-28T07:38:00;73074.16;;;-140.64;100.00
7930;BME280;4010;42.698;23.124;2022-11-28T07:40:28;74634.59;;;-140.64;100.00
7930;BME280;4010;42.698;23.124;2022-11-28T07:42:55;74894.72;;;-140.64;100.00
7930;BME280;4010;42.698;23.124;2022-11-28T07:45:23;74114.38;;;-140.64;100.00
7930;BME280;4010;42.698;23.124;2022-11-28T07:47:49;75935.47;;;-140.64;100.00
7930;BME280;4010;42.698;23.124;2022-11-28T07:50:16;78278.31;;;-140.64;100.00
7930;BME280;4010;42.698;23.124;2022-11-28T07:52:43;79580.59;;;-140.64;100.00
7930;BME280;4010;42.698;23.124;2022-11-28T07:55:09;80622.75;;;-140.64;100.00
7930;BME280;4010;42.698;23.124;2022-11-28T07:57:38;82447.31;;;-140.64;100.00
7930;BME280;4010;42.698;23.124;2022-11-28T08:00:05;82447.31;;;-140.64;100.00
7930;BME280;4010;42.698;23.124;2022-11-28T08:02:32;85055.50;;;-140.64;100.00
7930;BME280;4010;42.698;23.124;2022-11-28T08:04:59;84011.97;;;-140.64;100.00
7930;BME280;4010;42.698;23.124;2022-11-28T08:07:26;84794.59;;;-140.64;100.00
7930;BME280;4010;42.698;23.124;2022-11-28T08:09:52;86360.34;;;-140.64;100.00
7930;BME280;4010;42.698;23.124;2022-11-28T08:12:19;91584.59;;;-140.64;100.00
7930;BME280;4010;42.698;23.124;2022-11-28T08:14:47;93153.44;;;-140.64;100.00
7930;BME280;4010;42.698;23.124;2022-11-28T08:17:14;94199.69;;;-140.64;100.00
7930;BME280;4010;42.698;23.124;2022-11-28T08:19:40;95769.72;;;-140.64;100.00
7930;BME280;4010;42.698;23.124;2022-11-28T08:22:07;93938.09;;;-140.64;100.00
7930;BME280;4010;42.698;23.124;2022-11-28T08:24:34;93153.44;;;-140.64;100.00
7930;BME280;4010;42.698;23.124;2022-11-28T08:27:01;89493.94;;;-140.64;100.00
7930;BME280;4010;42.698;23.124;2022-11-28T08:29:27;91323.19;;;-140.64;100.00
7930;BME280;4010;42.698;23.124;2022-11-28T08:31:55;94199.69;;;-140.64;100.00
7930;BME280;4010;42.698;23.124;2022-11-28T08:34:22;101008.19;;;-140.64;100.00
7930;BME280;4010;42.698;23.124;2022-11-28T08:36:49;102581.28;;;-140.64;100.00
7930;BME280;4010;42.698;23.124;2022-11-28T08:39:15;99173.81;;;-140.64;100.00
7930;BME280;4010;42.698;23.124;2022-11-28T08:41:43;98649.91;;;-140.64;100.00
7930;BME280;4010;42.698;23.124;2022-11-28T08:44:10;99697.84;;;-140.64;100.00
7930;BME280;4010;42.698;23.124;2022-11-28T08:46:37;99959.88;;;-140.64;100.00
7930;BME280;4010;42.698;23.124;2022-11-28T08:49:05;97864.16;;;-140.64;100.00
7930;BME280;4010;42.698;23.124;2022-11-28T08:51:32;96554.97;;;-140.64;100.00
7930;BME280;4010;42.698;23.124;2022-11-28T08:53:58;98387.97;;;-140.64;100.00
7930;BME280;4010;42.698;23.124;2022-11-28T08:56:25;96554.97;;;-140.64;100.00
7930;BME280;4010;42.698;23.124;2022-11-28T08:58:52;97078.59;;;-140.64;100.00
7930;BME280;4010;42.698;23.124;2022-11-28T09:01:20;94984.63;;;-140.64;100.00
7930;BME280;4010;42.698;23.124;2022-11-28T09:03:47;93676.53;;;-140.64;100.00
7930;BME280;4010;42.698;23.124;2022-11-28T09:06:16;92891.91;;;-140.64;100.00
7930;BME280;4010;42.698;23.124;2022-11-28T09:08:44;96031.44;;;-140.64;100.00
7930;BME280;4010;42.698;23.124;2022-11-28T09:11:13;93153.44;;;-140.64;100.00
7930;BME280;4010;42.698;23.124;2022-11-28T09:13:40;93676.53;;;-140.64;100.00
7930;BME280;4010;42.698;23.124;2022-11-28T09:16:07;97602.28;;;-140.64;100.00
7930;BME280;4010;42.698;23.124;2022-11-28T09:18:35;103368.09;;;-140.64;100.00
7930;BME280;4010;42.698;23.124;2022-11-28T09:21:04;105467.09;;;-140.64;100.00
7930;BME280;4010;42.698;23.124;2022-11-28T09:23:35;108092.66;;;-140.64;100.00
7930;BME280;4010;42.698;23.124;2022-11-28T09:26:06;104417.44;;;-140.64;100.00
7930;BME280;4010;42.698;23.124;2022-11-28T09:28:33;100221.91;;;-140.64;100.00
7930;BME280;4010;42.698;23.124;2022-11-28T09:31:00;101270.31;;;-140.64;100.00
7930;BME280;4010;42.698;23.124;2022-11-28T09:33:27;112560.66;;;-140.64;100.00
7930;BME280;4010;42.698;23.124;2022-11-28T09:35:54;117521.94;;;-140.64;100.00
7930;BME280;4010;42.698;23.124;2022-11-28T09:38:22;118291.53;;;-140.64;100.00
7930;BME280;4010;42.698;23.124;2022-11-28T09:40:51;117912.88;;;-140.64;100.00
7930;BME280;4010;42.698;23.124;2022-11-28T09:43:28;118349.16;;;-140.64;100.00
7930;BME280;4010;42.698;23.124;2022-11-28T09:45:57;118349.16;;;-140.64;100.00
7930;BME280;4010;42.698;23.124;2022-11-28T09:48:29;118349.16;;;-140.64;100.00
7930;BME280;4010;42.698;23.124;2022-11-28T09:51:02;118349.16;;;-140.64;100.00
7930;BME280;4010;42.698;23.124;2022-11-28T09:53:36;118349.16;;;-140.64;100.00
7930;BME280;4010;42.698;23.124;2022-11-28T09:56:09;118349.16;;;-140.64;100.00
7930;BME280;4010;42.698;23.124;2022-11-28T09:58:40;118349.16;;;-140.64;100.00
7930;BME280;4010;42.698;23.124;2022-11-28T10:01:16;118349.16;;;-140.64;100.00
7930;BME280;4010;42.698;23.124;2022-11-28T10:03:48;118349.16;;;-140.64;100.00
7930;BME280;4010;42.698;23.124;2022-11-28T10:06:23;118349.16;;;-140.64;100.00
7930;BME280;4010;42.698;23.124;2022-11-28T10:09:13;118349.16;;;-140.64;100.00
7930;BME280;4010;42.698;23.124;2022-11-28T10:11:54;118349.16;;;-140.64;100.00
7930;BME280;4010;42.698;23.124;2022-11-28T10:14:45;118349.16;;;-140.64;100.00
7930;BME280;4010;42.698;23.124;2022-11-28T10:17:24;118349.16;;;-140.64;100.00
7930;BME280;4010;42.698;23.124;2022-11-28T10:19:57;118349.16;;;-140.64;100.00
7930;BME280;4010;42.698;23.124;2022-11-28T10:22:33;118349.16;;;-140.64;100.00
7930;BME280;4010;42.698;23.124;2022-11-28T10:25:05;118349.16;;;-140.64;100.00
7930;BME280;4010;42.698;23.124;2022-11-28T10:27:35;118349.16;;;-140.64;100.00
7930;BME280;4010;42.698;23.124;2022-11-28T10:30:05;118349.16;;;-140.64;100.00
7930;BME280;4010;42.698;23.124;2022-11-28T10:32:35;118349.16;;;-140.64;100.00
7930;BME280;4010;42.698;23.124;2022-11-28T10:35:05;118349.16;;;-140.64;100.00
7930;BME280;4010;42.698;23.124;2022-11-28T10:37:35;118349.16;;;-140.64;100.00
7930;BME280;4010;42.698;23.124;2022-11-28T10:40:20;118349.16;;;-140.64;100.00
7930;BME280;4010;42.698;23.124;2022-11-28T10:42:55;118349.16;;;-140.64;100.00
7930;BME280;4010;42.698;23.124;2022-11-28T10:45:30;118349.16;;;-140.64;100.00
7930;BME280;4010;42.698;23.124;2022-11-28T10:48:18;118349.16;;;-140.64;100.00
7930;BME280;4010;42.698;23.124;2022-11-28T10:50:53;118349.16;;;-140.64;100.00
7930;BME280;4010;42.698;23.124;2022-11-28T10:53:29;118349.16;;;-140.64;100.00
7930;BME280;4010;42.698;23.124;2022-11-28T10:56:09;118349.16;;;-140.64;100.00
7930;BME280;4010;42.698;23.124;2022-11-28T10:58:45;118349.16;;;-140.64;100.00
7930;BME280;4010;42.698;23.124;2022-11-28T11:01:15;118349.16;;;-140.64;100.00
7930;BME280;4010;42.698;23.124;2022-11-28T11:03:42;118349.16;;;-140.64;100.00
7930;BME280;4010;42.698;23.124;2022-11-28T11:06:09;118349.16;;;-140.64;100.00
7930;BME280;4010;42.698;23.124;2022-11-28T11:08:37;118349.16;;;-140.64;100.00
7930;BME280;4010;42.698;23.124;2022-11-28T11:11:05;118349.16;;;-140.64;100.00
7930;BME280;4010;42.698;23.124;2022-11-28T11:13:59;118349.16;;;-140.64;100.00
7930;BME280;4010;42.698;23.124;2022-11-28T11:16:45;118349.16;;;-140.64;100.00
7930;BME280;4010;42.698;23.124;2022-11-28T11:19:22;118349.16;;;-140.64;100.00
7930;BME280;4010;42.698;23.124;2022-11-28T11:21:58;118349.16;;;-140.64;100.00
7930;BME280;4010;42.698;23.124;2022-11-28T11:24:25;118349.16;;;-140.64;100.00
7930;BME280;4010;42.698;23.124;2022-11-28T11:26:51;118349.16;;;-140.64;100.00
7930;BME280;4010;42.698;23.124;2022-11-28T11:29:21;118349.16;;;-140.64;100.00
7930;BME280;4010;42.698;23.124;2022-11-28T11:31:52;118349.16;;;-140.64;100.00
7930;BME280;4010;42.698;23.124;2022-11-28T11:34:20;118349.16;;;-140.64;100.00
7930;BME280;4010;42.698;23.124;2022-11-28T11:36:48;118349.16;;;-140.64;100.00
7930;BME280;4010;42.698;23.124;2022-11-28T11:39:19;118349.16;;;-140.64;100.00
7930;BME280;4010;42.698;23.124;2022-11-28T11:41:47;118349.16;;;-140.64;100.00
7930;BME280;4010;42.698;23.124;2022-11-28T11:44:28;118349.16;;;-140.64;100.00
7930;BME280;4010;42.698;23.124;2022-11-28T11:46:59;118349.16;;;-140.64;100.00
7930;BME280;4010;42.698;23.124;2022-11-28T11:49:30;118349.16;;;-140.64;100.00
7930;BME280;4010;42.698;23.124;2022-11-28T11:51:59;118349.16;;;-140.64;100.00
7930;BME280;4010;42.698;23.124;2022-11-28T11:54:26;118349.16;;;-140.64;100.00
7930;BME280;4010;42.698;23.124;2022-11-28T11:56:54;118349.16;;;-140.64;100.00
7930;BME280;4010;42.698;23.124;2022-11-28T11:59:28;118349.16;;;-140.64;100.00
7930;BME280;4010;42.698;23.124;2022-11-28T12:01:59;118349.16;;;-140.64;100.00
7930;BME280;4010;42.698;23.124;2022-11-28T12:04:29;118349.16;;;-140.64;100.00
7930;BME280;4010;42.698;23.124;2022-11-28T12:07:00;118349.16;;;-140.64;100.00
7930;BME280;4010;42.698;23.124;2022-11-28T12:09:32;118349.16;;;-140.64;100.00
7930;BME280;4010;42.698;23.124;2022-11-28T12:12:06;118349.16;;;-140.64;100.00
7930;BME280;4010;42.698;23.124;2022-11-28T12:14:38;118349.16;;;-140.64;100.00
7930;BME280;4010;42.698;23.124;2022-11-28T12:17:24;118349.16;;;-140.64;100.00
7930;BME280;4010;42.698;23.124;2022-11-28T12:20:04;118349.16;;;-140.64;100.00
7930;BME280;4010;42.698;23.124;2022-11-28T12:22:39;118349.16;;;-140.64;100.00
7930;BME280;4010;42.698;23.124;2022-11-28T12:25:13;118349.16;;;-140.64;100.00
7930;BME280;4010;42.698;23.124;2022-11-28T12:28:01;118349.16;;;-140.64;100.00
7930;BME280;4010;42.698;23.124;2022-11-28T12:30:41;118349.16;;;-140.64;100.00
7930;BME280;4010;42.698;23.124;2022-11-28T12:33:19;118349.16;;;-140.64;100.00
7930;BME280;4010;42.698;23.124;2022-11-28T12:36:00;118349.16;;;-140.64;100.00
7930;BME280;4010;42.698;23.124;2022-11-28T12:38:38;118349.16;;;-140.64;100.00
7930;BME280;4010;42.698;23.124;2022-11-28T12:41:22;118349.16;;;-140.64;100.00
7930;BME280;4010;42.698;23.124;2022-11-28T12:43:58;118349.16;;;-140.64;100.00
7930;BME280;4010;42.698;23.124;2022-11-28T12:46:38;118349.16;;;-140.64;100.00
7930;BME280;4010;42.698;23.124;2022-11-28T12:49:15;118349.16;;;-140.64;100.00
7930;BME280;4010;42.698;23.124;2022-11-28T12:51:56;118349.16;;;-140.64;100.00
7930;BME280;4010;42.698;23.124;2022-11-28T12:54:37;118349.16;;;-140.64;100.00
7930;BME280;4010;42.698;23.124;2022-11-28T12:57:11;118349.16;;;-140.64;100.00